sensor_id;sensor_type;location;lat;lon;timestamp;P1;durP1;ratioP1;P2;durP2;ratioP2
12587;SDS011;6359;51.450;7.346;2023-04-09T00:02:02;49.13;;;27.20;;
12587;SDS011;6359;51.450;7.346;2023-04-09T00:04:29;44.75;;;25.80;;
12587;SDS011;6359;51.450;7.346;2023-04-09T00:06:57;46.13;;;25.73;;
12587;SDS011;6359;51.450;7.346;2023-04-09T00:09:24;46.65;;;26.23;;
12587;SDS011;6359;51.450;7.346;2023-04-09T00:11:51;39.78;;;25.20;;
12587;SDS011;6359;51.450;7.346;2023-04-09T00:14:18;40.17;;;24.42;;
12587;SDS011;6359;51.450;7.346;2023-04-09T00:16:45;48.25;;;26.20;;
12587;SDS011;6359;51.450;7.346;2023-04-09T00:19:12;53.72;;;26.25;;
12587;SDS011;6359;51.450;7.346;2023-04-09T00:21:39;50.80;;;27.88;;
12587;SDS011;6359;51.450;7.346;2023-04-09T00:24:08;50.25;;;27.42;;
12587;SDS011;6359;51.450;7.346;2023-04-09T00:26:35;42.42;;;24.90;;
12587;SDS011;6359;51.450;7.346;2023-04-09T00:29:02;52.28;;;27.33;;
12587;SDS011;6359;51.450;7.346;2023-04-09T00:31:29;48.45;;;26.60;;
12587;SDS011;6359;51.450;7.346;2023-04-09T00:33:57;51.65;;;26.55;;
12587;SDS011;6359;51.450;7.346;2023-04-09T00:36:24;45.67;;;24.17;;
12587;SDS011;6359;51.450;7.346;2023-04-09T00:38:51;42.33;;;25.95;;
12587;SDS011;6359;51.450;7.346;2023-04-09T00:41:20;49.80;;;26.73;;
12587;SDS011;6359;51.450;7.346;2023-04-09T00:43:47;44.70;;;25.90;;
12587;SDS011;6359;51.450;7.346;2023-04-09T00:46:14;47.60;;;25.67;;
12587;SDS011;6359;51.450;7.346;2023-04-09T00:48:41;46.17;;;26.00;;
12587;SDS011;6359;51.450;7.346;2023-04-09T00:51:09;49.28;;;27.30;;
12587;SDS011;6359;51.450;7.346;2023-04-09T00:53:36;47.45;;;27.80;;
12587;SDS011;6359;51.450;7.346;2023-04-09T00:56:03;45.67;;;25.25;;
12587;SDS011;6359;51.450;7.346;2023-04-09T00:58:32;48.72;;;26.42;;
12587;SDS011;6359;51.450;7.346;2023-04-09T01:01:00;51.28;;;26.63;;
12587;SDS011;6359;51.450;7.346;2023-04-09T01:03:27;52.15;;;26.10;;
12587;SDS011;6359;51.450;7.346;2023-04-09T01:05:57;49.63;;;24.67;;
12587;SDS011;6359;51.450;7.346;2023-04-09T01:08:31;46.10;;;25.42;;
12587;SDS011;6359;51.450;7.346;2023-04-09T01:11:05;52.47;;;26.45;;
12587;SDS011;6359;51.450;7.346;2023-04-09T01:13:44;49.17;;;26.85;;
12587;SDS011;6359;51.450;7.346;2023-04-09T01:16:14;50.38;;;25.70;;
12587;SDS011;6359;51.450;7.346;2023-04-09T01:18:45;43.65;;;26.05;;
12587;SDS011;6359;51.450;7.346;2023-04-09T01:21:18;54.28;;;28.63;;
12587;SDS011;6359;51.450;7.346;2023-04-09T01:23:52;62.00;;;27.43;;
12587;SDS011;6359;51.450;7.346;2023-04-09T01:26:29;56.50;;;27.83;;
12587;SDS011;6359;51.450;7.346;2023-04-09T01:29:08;57.03;;;28.25;;
12587;SDS011;6359;51.450;7.346;2023-04-09T01:31:37;54.30;;;26.23;;
12587;SDS011;6359;51.450;7.346;2023-04-09T01:34:07;59.88;;;27.90;;
12587;SDS011;6359;51.450;7.346;2023-04-09T01:36:35;59.83;;;28.38;;
12587;SDS011;6359;51.450;7.346;2023-04-09T01:39:03;54.72;;;28.05;;
12587;SDS011;6359;51.450;7.346;2023-04-09T01:41:32;60.53;;;28.02;;
12587;SDS011;6359;51.450;7.346;2023-04-09T01:44:01;58.33;;;29.45;;
12587;SDS011;6359;51.450;7.346;2023-04-09T01:46:31;57.40;;;28.25;;
12587;SDS011;6359;51.450;7.346;2023-04-09T01:49:00;54.78;;;26.55;;
12587;SDS011;6359;51.450;7.346;2023-04-09T01:51:28;55.47;;;27.65;;
12587;SDS011;6359;51.450;7.346;2023-04-09T01:53:56;52.20;;;26.60;;
12587;SDS011;6359;51.450;7.346;2023-04-09T01:56:24;58.47;;;29.70;;
12587;SDS011;6359;51.450;7.346;2023-04-09T01:58:51;55.78;;;26.73;;
12587;SDS011;6359;51.450;7.346;2023-04-09T02:01:19;53.75;;;28.10;;
12587;SDS011;6359;51.450;7.346;2023-04-09T02:03:53;65.47;;;27.15;;
12587;SDS011;6359;51.450;7.346;2023-04-09T02:06:23;60.72;;;29.42;;
12587;SDS011;6359;51.450;7.346;2023-04-09T02:08:53;56.78;;;25.23;;
12587;SDS011;6359;51.450;7.346;2023-04-09T02:11:23;50.35;;;24.27;;
12587;SDS011;6359;51.450;7.346;2023-04-09T02:13:51;59.08;;;25.90;;
12587;SDS011;6359;51.450;7.346;2023-04-09T02:16:21;44.63;;;24.52;;
12587;SDS011;6359;51.450;7.346;2023-04-09T02:18:53;45.45;;;23.10;;
12587;SDS011;6359;51.450;7.346;2023-04-09T02:21:21;44.73;;;23.90;;
12587;SDS011;6359;51.450;7.346;2023-04-09T02:23:48;44.22;;;22.23;;
12587;SDS011;6359;51.450;7.346;2023-04-09T02:26:15;44.45;;;24.15;;
12587;SDS011;6359;51.450;7.346;2023-04-09T02:28:42;43.77;;;23.20;;
12587;SDS011;6359;51.450;7.346;2023-04-09T02:31:09;52.75;;;25.55;;
12587;SDS011;6359;51.450;7.346;2023-04-09T02:33:36;52.63;;;23.27;;
12587;SDS011;6359;51.450;7.346;2023-04-09T02:36:05;45.15;;;23.20;;
12587;SDS011;6359;51.450;7.346;2023-04-09T02:38:32;47.92;;;26.35;;
12587;SDS011;6359;51.450;7.346;2023-04-09T02:40:59;52.85;;;25.17;;
12587;SDS011;6359;51.450;7.346;2023-04-09T02:43:26;46.17;;;23.70;;
12587;SDS011;6359;51.450;7.346;2023-04-09T02:45:53;55.70;;;25.25;;
12587;SDS011;6359;51.450;7.346;2023-04-09T02:48:20;50.73;;;25.17;;
12587;SDS011;6359;51.450;7.346;2023-04-09T02:50:47;56.23;;;26.33;;
12587;SDS011;6359;51.450;7.346;2023-04-09T02:53:15;48.63;;;25.63;;
12587;SDS011;6359;51.450;7.346;2023-04-09T02:55:42;50.15;;;25.65;;
12587;SDS011;6359;51.450;7.346;2023-04-09T02:58:09;65.30;;;29.50;;
12587;SDS011;6359;51.450;7.346;2023-04-09T03:00:36;60.58;;;27.80;;
12587;SDS011;6359;51.450;7.346;2023-04-09T03:03:03;79.57;;;30.80;;
12587;SDS011;6359;51.450;7.346;2023-04-09T03:05:30;79.18;;;31.90;;
12587;SDS011;6359;51.450;7.346;2023-04-09T03:07:57;111.03;;;35.20;;
12587;SDS011;6359;51.450;7.346;2023-04-09T03:10:26;65.50;;;28.70;;
12587;SDS011;6359;51.450;7.346;2023-04-09T03:12:53;91.20;;;33.58;;
12587;SDS011;6359;51.450;7.346;2023-04-09T03:15:20;316.67;;;44.10;;
12587;SDS011;6359;51.450;7.346;2023-04-09T03:17:47;206.48;;;39.90;;
12587;SDS011;6359;51.450;7.346;2023-04-09T03:20:14;236.25;;;40.85;;
12587;SDS011;6359;51.450;7.346;2023-04-09T03:22:41;231.35;;;36.38;;
12587;SDS011;6359;51.450;7.346;2023-04-09T03:25:08;432.02;;;44.72;;
12587;SDS011;6359;51.450;7.346;2023-04-09T03:27:36;137.60;;;36.60;;
12587;SDS011;6359;51.450;7.346;2023-04-09T03:30:04;245.55;;;40.58;;
12587;SDS011;6359;51.450;7.346;2023-04-09T03:32:31;112.32;;;34.70;;
12587;SDS011;6359;51.450;7.346;2023-04-09T03:34:58;319.43;;;44.27;;
12587;SDS011;6359;51.450;7.346;2023-04-09T03:37:25;214.57;;;37.17;;
12587;SDS011;6359;51.450;7.346;2023-04-09T03:39:52;218.85;;;42.53;;
12587;SDS011;6359;51.450;7.346;2023-04-09T03:42:19;534.70;;;55.77;;
12587;SDS011;6359;51.450;7.346;2023-04-09T03:44:48;178.65;;;37.22;;
12587;SDS011;6359;51.450;7.346;2023-04-09T03:47:15;508.27;;;51.58;;
12587;SDS011;6359;51.450;7.346;2023-04-09T03:49:42;258.92;;;40.65;;
12587;SDS011;6359;51.450;7.346;2023-04-09T03:52:09;456.13;;;51.17;;
12587;SDS011;6359;51.450;7.346;2023-04-09T03:54:36;633.78;;;60.08;;
12587;SDS011;6359;51.450;7.346;2023-04-09T03:57:03;455.33;;;52.80;;
12587;SDS011;6359;51.450;7.346;2023-04-09T03:59:30;165.93;;;38.60;;
12587;SDS011;6359;51.450;7.346;2023-04-09T04:01:58;230.05;;;41.40;;
12587;SDS011;6359;51.450;7.346;2023-04-09T04:04:25;356.37;;;51.33;;
12587;SDS011;6359;51.450;7.346;2023-04-09T04:06:52;269.42;;;44.78;;
12587;SDS011;6359;51.450;7.346;2023-04-09T04:09:19;396.50;;;50.67;;
12587;SDS011;6359;51.450;7.346;2023-04-09T04:11:46;469.80;;;54.23;;
12587;SDS011;6359;51.450;7.346;2023-04-09T04:14:13;279.60;;;40.90;;
12587;SDS011;6359;51.450;7.346;2023-04-09T04:16:41;383.30;;;49.70;;
12587;SDS011;6359;51.450;7.346;2023-04-09T04:19:09;408.90;;;49.40;;
12587;SDS011;6359;51.450;7.346;2023-04-09T04:21:36;202.10;;;39.43;;
12587;SDS011;6359;51.450;7.346;2023-04-09T04:24:03;423.92;;;53.90;;
12587;SDS011;6359;51.450;7.346;2023-04-09T04:26:30;552.53;;;57.92;;
12587;SDS011;6359;51.450;7.346;2023-04-09T04:28:57;658.73;;;63.80;;
12587;SDS011;6359;51.450;7.346;2023-04-09T04:31:24;238.47;;;40.93;;
12587;SDS011;6359;51.450;7.346;2023-04-09T04:33:51;665.15;;;61.72;;
12587;SDS011;6359;51.450;7.346;2023-04-09T04:36:20;119.13;;;36.92;;
12587;SDS011;6359;51.450;7.346;2023-04-09T04:38:47;340.13;;;47.03;;
12587;SDS011;6359;51.450;7.346;2023-04-09T04:41:14;301.07;;;42.67;;
12587;SDS011;6359;51.450;7.346;2023-04-09T04:43:41;169.90;;;39.63;;
12587;SDS011;6359;51.450;7.346;2023-04-09T04:46:08;95.78;;;32.08;;
12587;SDS011;6359;51.450;7.346;2023-04-09T04:48:35;400.35;;;47.15;;
12587;SDS011;6359;51.450;7.346;2023-04-09T04:51:02;505.23;;;54.95;;
12587;SDS011;6359;51.450;7.346;2023-04-09T04:53:30;560.67;;;56.25;;
12587;SDS011;6359;51.450;7.346;2023-04-09T04:55:57;530.00;;;56.00;;
12587;SDS011;6359;51.450;7.346;2023-04-09T04:58:24;591.03;;;55.87;;
12587;SDS011;6359;51.450;7.346;2023-04-09T05:00:51;123.38;;;32.25;;
12587;SDS011;6359;51.450;7.346;2023-04-09T05:03:18;430.65;;;48.88;;
12587;SDS011;6359;51.450;7.346;2023-04-09T05:05:46;180.82;;;35.20;;
12587;SDS011;6359;51.450;7.346;2023-04-09T05:08:13;481.35;;;49.88;;
12587;SDS011;6359;51.450;7.346;2023-04-09T05:10:42;183.85;;;37.42;;
12587;SDS011;6359;51.450;7.346;2023-04-09T05:13:10;180.73;;;36.57;;
12587;SDS011;6359;51.450;7.346;2023-04-09T05:15:37;122.75;;;31.60;;
12587;SDS011;6359;51.450;7.346;2023-04-09T05:18:05;291.52;;;38.20;;
12587;SDS011;6359;51.450;7.346;2023-04-09T05:20:33;311.55;;;36.28;;
12587;SDS011;6359;51.450;7.346;2023-04-09T05:23:00;366.42;;;42.15;;
12587;SDS011;6359;51.450;7.346;2023-04-09T05:25:27;449.08;;;44.58;;
12587;SDS011;6359;51.450;7.346;2023-04-09T05:27:55;450.27;;;44.60;;
12587;SDS011;6359;51.450;7.346;2023-04-09T05:30:23;302.70;;;37.70;;
12587;SDS011;6359;51.450;7.346;2023-04-09T05:32:50;320.40;;;42.30;;
12587;SDS011;6359;51.450;7.346;2023-04-09T05:35:17;238.80;;;35.90;;
12587;SDS011;6359;51.450;7.346;2023-04-09T05:37:44;206.73;;;32.83;;
12587;SDS011;6359;51.450;7.346;2023-04-09T05:40:12;73.45;;;26.35;;
12587;SDS011;6359;51.450;7.346;2023-04-09T05:42:39;119.72;;;29.33;;
12587;SDS011;6359;51.450;7.346;2023-04-09T05:45:08;307.35;;;33.97;;
12587;SDS011;6359;51.450;7.346;2023-04-09T05:47:36;169.20;;;29.60;;
12587;SDS011;6359;51.450;7.346;2023-04-09T05:50:03;215.38;;;31.17;;
12587;SDS011;6359;51.450;7.346;2023-04-09T05:52:31;103.55;;;24.15;;
12587;SDS011;6359;51.450;7.346;2023-04-09T05:54:58;142.95;;;30.45;;
12587;SDS011;6359;51.450;7.346;2023-04-09T05:57:25;72.63;;;22.52;;
12587;SDS011;6359;51.450;7.346;2023-04-09T05:59:54;51.78;;;22.20;;
12587;SDS011;6359;51.450;7.346;2023-04-09T06:02:22;296.17;;;31.58;;
12587;SDS011;6359;51.450;7.346;2023-04-09T06:04:50;145.38;;;26.20;;
12587;SDS011;6359;51.450;7.346;2023-04-09T06:07:17;248.35;;;32.80;;
12587;SDS011;6359;51.450;7.346;2023-04-09T06:09:45;191.82;;;26.83;;
12587;SDS011;6359;51.450;7.346;2023-04-09T06:12:12;94.47;;;22.58;;
12587;SDS011;6359;51.450;7.346;2023-04-09T06:14:39;70.47;;;22.00;;
12587;SDS011;6359;51.450;7.346;2023-04-09T06:17:06;178.30;;;25.70;;
12587;SDS011;6359;51.450;7.346;2023-04-09T06:19:35;79.93;;;20.65;;
12587;SDS011;6359;51.450;7.346;2023-04-09T06:22:02;52.92;;;20.90;;
12587;SDS011;6359;51.450;7.346;2023-04-09T06:24:29;41.08;;;20.20;;
12587;SDS011;6359;51.450;7.346;2023-04-09T06:26:57;62.92;;;20.17;;
12587;SDS011;6359;51.450;7.346;2023-04-09T06:29:25;68.40;;;19.38;;
12587;SDS011;6359;51.450;7.346;2023-04-09T06:31:52;42.22;;;18.77;;
12587;SDS011;6359;51.450;7.346;2023-04-09T06:34:19;23.15;;;15.50;;
12587;SDS011;6359;51.450;7.346;2023-04-09T06:36:48;24.42;;;15.65;;
12587;SDS011;6359;51.450;7.346;2023-04-09T06:39:15;23.50;;;15.82;;
12587;SDS011;6359;51.450;7.346;2023-04-09T06:41:42;20.30;;;14.35;;
12587;SDS011;6359;51.450;7.346;2023-04-09T06:44:09;20.80;;;15.18;;
12587;SDS011;6359;51.450;7.346;2023-04-09T06:46:36;17.67;;;12.90;;
12587;SDS011;6359;51.450;7.346;2023-04-09T06:49:03;17.48;;;13.73;;
12587;SDS011;6359;51.450;7.346;2023-04-09T06:51:30;16.48;;;12.77;;
12587;SDS011;6359;51.450;7.346;2023-04-09T06:53:58;18.70;;;12.77;;
12587;SDS011;6359;51.450;7.346;2023-04-09T06:56:25;14.38;;;12.32;;
12587;SDS011;6359;51.450;7.346;2023-04-09T06:58:52;14.98;;;12.38;;
12587;SDS011;6359;51.450;7.346;2023-04-09T07:01:19;13.85;;;11.50;;
12587;SDS011;6359;51.450;7.346;2023-04-09T07:03:46;13.60;;;11.55;;
12587;SDS011;6359;51.450;7.346;2023-04-09T07:06:13;13.85;;;12.02;;
12587;SDS011;6359;51.450;7.346;2023-04-09T07:08:40;15.70;;;13.05;;
12587;SDS011;6359;51.450;7.346;2023-04-09T07:11:08;16.50;;;13.52;;
12587;SDS011;6359;51.450;7.346;2023-04-09T07:13:35;20.90;;;14.73;;
12587;SDS011;6359;51.450;7.346;2023-04-09T07:16:03;26.58;;;17.48;;
12587;SDS011;6359;51.450;7.346;2023-04-09T07:18:30;26.27;;;17.90;;
12587;SDS011;6359;51.450;7.346;2023-04-09T07:20:57;33.42;;;22.65;;
12587;SDS011;6359;51.450;7.346;2023-04-09T07:23:24;32.75;;;21.58;;
12587;SDS011;6359;51.450;7.346;2023-04-09T07:25:51;37.67;;;22.42;;
12587;SDS011;6359;51.450;7.346;2023-04-09T07:28:20;23.60;;;17.77;;
12587;SDS011;6359;51.450;7.346;2023-04-09T07:30:47;21.38;;;16.45;;
12587;SDS011;6359;51.450;7.346;2023-04-09T07:33:14;18.58;;;15.15;;
12587;SDS011;6359;51.450;7.346;2023-04-09T07:35:41;19.73;;;15.75;;
12587;SDS011;6359;51.450;7.346;2023-04-09T07:38:08;23.15;;;16.20;;
12587;SDS011;6359;51.450;7.346;2023-04-09T07:40:34;20.90;;;16.90;;
12587;SDS011;6359;51.450;7.346;2023-04-09T07:43:02;21.77;;;16.02;;
12587;SDS011;6359;51.450;7.346;2023-04-09T07:45:31;24.42;;;18.00;;
12587;SDS011;6359;51.450;7.346;2023-04-09T07:47:58;20.85;;;17.17;;
12587;SDS011;6359;51.450;7.346;2023-04-09T07:50:25;24.23;;;17.02;;
12587;SDS011;6359;51.450;7.346;2023-04-09T07:52:52;19.83;;;15.73;;
12587;SDS011;6359;51.450;7.346;2023-04-09T07:55:19;21.60;;;15.07;;
12587;SDS011;6359;51.450;7.346;2023-04-09T07:57:46;25.73;;;19.23;;
12587;SDS011;6359;51.450;7.346;2023-04-09T08:00:16;30.08;;;20.67;;
12587;SDS011;6359;51.450;7.346;2023-04-09T08:02:45;25.63;;;19.15;;
12587;SDS011;6359;51.450;7.346;2023-04-09T08:05:12;21.73;;;15.52;;
12587;SDS011;6359;51.450;7.346;2023-04-09T08:07:39;17.77;;;13.68;;
12587;SDS011;6359;51.450;7.346;2023-04-09T08:10:07;13.68;;;10.73;;
12587;SDS011;6359;51.450;7.346;2023-04-09T08:12:39;13.48;;;10.65;;
12587;SDS011;6359;51.450;7.346;2023-04-09T08:15:06;10.65;;;8.48;;
12587;SDS011;6359;51.450;7.346;2023-04-09T08:17:33;11.00;;;9.05;;
12587;SDS011;6359;51.450;7.346;2023-04-09T08:20:02;12.40;;;8.38;;
12587;SDS011;6359;51.450;7.346;2023-04-09T08:22:30;9.43;;;8.40;;
12587;SDS011;6359;51.450;7.346;2023-04-09T08:24:57;10.10;;;8.38;;
12587;SDS011;6359;51.450;7.346;2023-04-09T08:27:24;9.30;;;7.85;;
12587;SDS011;6359;51.450;7.346;2023-04-09T08:29:51;9.75;;;8.68;;
12587;SDS011;6359;51.450;7.346;2023-04-09T08:32:18;9.80;;;8.00;;
12587;SDS011;6359;51.450;7.346;2023-04-09T08:34:45;9.27;;;8.02;;
12587;SDS011;6359;51.450;7.346;2023-04-09T08:37:14;12.52;;;9.38;;
12587;SDS011;6359;51.450;7.346;2023-04-09T08:39:41;10.57;;;8.75;;
12587;SDS011;6359;51.450;7.346;2023-04-09T08:42:08;11.65;;;8.85;;
12587;SDS011;6359;51.450;7.346;2023-04-09T08:44:37;12.98;;;8.70;;
12587;SDS011;6359;51.450;7.346;2023-04-09T08:47:06;12.02;;;8.32;;
12587;SDS011;6359;51.450;7.346;2023-04-09T08:49:35;10.70;;;8.52;;
12587;SDS011;6359;51.450;7.346;2023-04-09T08:52:04;9.68;;;7.88;;
12587;SDS011;6359;51.450;7.346;2023-04-09T08:54:33;8.65;;;7.65;;
12587;SDS011;6359;51.450;7.346;2023-04-09T08:57:03;8.98;;;7.85;;
12587;SDS011;6359;51.450;7.346;2023-04-09T08:59:30;8.85;;;6.97;;
12587;SDS011;6359;51.450;7.346;2023-04-09T09:02:07;9.75;;;8.05;;
12587;SDS011;6359;51.450;7.346;2023-04-09T09:04:43;10.02;;;9.00;;
12587;SDS011;6359;51.450;7.346;2023-04-09T09:07:12;10.30;;;7.82;;
12587;SDS011;6359;51.450;7.346;2023-04-09T09:09:50;11.23;;;8.35;;
12587;SDS011;6359;51.450;7.346;2023-04-09T09:12:34;10.90;;;8.38;;
12587;SDS011;6359;51.450;7.346;2023-04-09T09:15:03;12.07;;;9.25;;
12587;SDS011;6359;51.450;7.346;2023-04-09T09:17:31;11.05;;;8.82;;
12587;SDS011;6359;51.450;7.346;2023-04-09T09:20:12;8.52;;;7.35;;
12587;SDS011;6359;51.450;7.346;2023-04-09T09:22:48;10.10;;;8.23;;
12587;SDS011;6359;51.450;7.346;2023-04-09T09:25:18;9.73;;;7.80;;
12587;SDS011;6359;51.450;7.346;2023-04-09T09:27:47;10.27;;;8.32;;
12587;SDS011;6359;51.450;7.346;2023-04-09T09:30:19;8.75;;;7.55;;
12587;SDS011;6359;51.450;7.346;2023-04-09T09:32:47;11.27;;;8.40;;
12587;SDS011;6359;51.450;7.346;2023-04-09T09:35:17;10.32;;;7.70;;
12587;SDS011;6359;51.450;7.346;2023-04-09T09:37:44;9.80;;;7.82;;
12587;SDS011;6359;51.450;7.346;2023-04-09T09:40:11;9.55;;;7.85;;
12587;SDS011;6359;51.450;7.346;2023-04-09T09:42:54;8.80;;;7.15;;
12587;SDS011;6359;51.450;7.346;2023-04-09T09:45:21;7.97;;;6.90;;
12587;SDS011;6359;51.450;7.346;2023-04-09T09:47:50;9.07;;;7.38;;
12587;SDS011;6359;51.450;7.346;2023-04-09T09:50:18;8.25;;;6.95;;
12587;SDS011;6359;51.450;7.346;2023-04-09T09:52:49;7.97;;;7.05;;
12587;SDS011;6359;51.450;7.346;2023-04-09T09:55:19;7.57;;;6.25;;
12587;SDS011;6359;51.450;7.346;2023-04-09T09:57:51;7.88;;;7.13;;
12587;SDS011;6359;51.450;7.346;2023-04-09T10:00:20;8.48;;;7.18;;
12587;SDS011;6359;51.450;7.346;2023-04-09T10:02:51;7.32;;;6.32;;
12587;SDS011;6359;51.450;7.346;2023-04-09T10:05:23;7.63;;;6.63;;
12587;SDS011;6359;51.450;7.346;2023-04-09T10:07:52;7.00;;;5.60;;
12587;SDS011;6359;51.450;7.346;2023-04-09T10:10:20;6.40;;;5.70;;
12587;SDS011;6359;51.450;7.346;2023-04-09T10:12:48;7.15;;;6.07;;
12587;SDS011;6359;51.450;7.346;2023-04-09T10:15:17;8.07;;;6.60;;
12587;SDS011;6359;51.450;7.346;2023-04-09T10:17:45;7.72;;;5.80;;
12587;SDS011;6359;51.450;7.346;2023-04-09T10:20:14;6.60;;;6.00;;
12587;SDS011;6359;51.450;7.346;2023-04-09T10:22:48;9.77;;;7.78;;
12587;SDS011;6359;51.450;7.346;2023-04-09T10:25:17;8.10;;;5.70;;
12587;SDS011;6359;51.450;7.346;2023-04-09T10:27:45;9.85;;;7.97;;
12587;SDS011;6359;51.450;7.346;2023-04-09T10:30:32;8.52;;;5.53;;
12587;SDS011;6359;51.450;7.346;2023-04-09T10:33:09;6.53;;;5.82;;
12587;SDS011;6359;51.450;7.346;2023-04-09T10:35:36;7.70;;;6.57;;
12587;SDS011;6359;51.450;7.346;2023-04-09T10:38:05;8.43;;;6.20;;
12587;SDS011;6359;51.450;7.346;2023-04-09T10:40:33;8.05;;;5.72;;
12587;SDS011;6359;51.450;7.346;2023-04-09T10:43:01;6.82;;;5.63;;
12587;SDS011;6359;51.450;7.346;2023-04-09T10:45:39;7.32;;;5.90;;
12587;SDS011;6359;51.450;7.346;2023-04-09T10:48:10;6.47;;;5.75;;
12587;SDS011;6359;51.450;7.346;2023-04-09T10:50:38;5.85;;;5.25;;
12587;SDS011;6359;51.450;7.346;2023-04-09T10:53:09;7.28;;;5.95;;
12587;SDS011;6359;51.450;7.346;2023-04-09T10:55:48;6.05;;;4.95;;
12587;SDS011;6359;51.450;7.346;2023-04-09T10:58:16;6.53;;;5.60;;
12587;SDS011;6359;51.450;7.346;2023-04-09T11:00:45;6.70;;;5.65;;
12587;SDS011;6359;51.450;7.346;2023-04-09T11:03:20;7.07;;;5.80;;
12587;SDS011;6359;51.450;7.346;2023-04-09T11:05:58;7.68;;;6.10;;
12587;SDS011;6359;51.450;7.346;2023-04-09T11:08:27;6.43;;;5.82;;
12587;SDS011;6359;51.450;7.346;2023-04-09T11:10:56;6.55;;;5.50;;
12587;SDS011;6359;51.450;7.346;2023-04-09T11:13:25;5.90;;;5.30;;
12587;SDS011;6359;51.450;7.346;2023-04-09T11:15:54;7.03;;;5.22;;
12587;SDS011;6359;51.450;7.346;2023-04-09T11:18:22;7.25;;;5.57;;
12587;SDS011;6359;51.450;7.346;2023-04-09T11:20:53;5.50;;;4.75;;
12587;SDS011;6359;51.450;7.346;2023-04-09T11:23:20;6.30;;;5.68;;
12587;SDS011;6359;51.450;7.346;2023-04-09T11:25:48;6.70;;;5.65;;
12587;SDS011;6359;51.450;7.346;2023-04-09T11:28:16;6.38;;;5.70;;
12587;SDS011;6359;51.450;7.346;2023-04-09T11:30:44;8.45;;;7.25;;
12587;SDS011;6359;51.450;7.346;2023-04-09T11:33:13;9.70;;;7.80;;
12587;SDS011;6359;51.450;7.346;2023-04-09T11:35:40;6.93;;;6.20;;
12587;SDS011;6359;51.450;7.346;2023-04-09T11:38:07;6.35;;;5.63;;
12587;SDS011;6359;51.450;7.346;2023-04-09T11:40:36;6.65;;;5.97;;
12587;SDS011;6359;51.450;7.346;2023-04-09T11:43:11;5.80;;;5.20;;
12587;SDS011;6359;51.450;7.346;2023-04-09T11:45:40;5.60;;;4.85;;
12587;SDS011;6359;51.450;7.346;2023-04-09T11:48:07;10.82;;;8.30;;
12587;SDS011;6359;51.450;7.346;2023-04-09T11:50:36;5.88;;;5.28;;
12587;SDS011;6359;51.450;7.346;2023-04-09T11:53:14;6.85;;;5.45;;
12587;SDS011;6359;51.450;7.346;2023-04-09T11:55:42;6.35;;;5.68;;
12587;SDS011;6359;51.450;7.346;2023-04-09T11:58:11;5.32;;;4.82;;
12587;SDS011;6359;51.450;7.346;2023-04-09T12:00:39;5.68;;;4.85;;
12587;SDS011;6359;51.450;7.346;2023-04-09T12:03:06;5.53;;;4.90;;
12587;SDS011;6359;51.450;7.346;2023-04-09T12:05:37;6.28;;;4.80;;
12587;SDS011;6359;51.450;7.346;2023-04-09T12:08:06;7.18;;;5.78;;
12587;SDS011;6359;51.450;7.346;2023-04-09T12:10:34;6.80;;;6.10;;
12587;SDS011;6359;51.450;7.346;2023-04-09T12:13:04;6.57;;;5.85;;
12587;SDS011;6359;51.450;7.346;2023-04-09T12:15:35;6.47;;;5.45;;
12587;SDS011;6359;51.450;7.346;2023-04-09T12:18:06;7.45;;;6.40;;
12587;SDS011;6359;51.450;7.346;2023-04-09T12:20:35;7.35;;;6.43;;
12587;SDS011;6359;51.450;7.346;2023-04-09T12:23:05;6.32;;;5.38;;
12587;SDS011;6359;51.450;7.346;2023-04-09T12:25:34;6.20;;;5.60;;
12587;SDS011;6359;51.450;7.346;2023-04-09T12:28:04;6.40;;;5.22;;
12587;SDS011;6359;51.450;7.346;2023-04-09T12:30:33;6.95;;;5.95;;
12587;SDS011;6359;51.450;7.346;2023-04-09T12:33:01;6.60;;;5.85;;
12587;SDS011;6359;51.450;7.346;2023-04-09T12:35:28;7.22;;;5.55;;
12587;SDS011;6359;51.450;7.346;2023-04-09T12:37:57;7.05;;;5.63;;
12587;SDS011;6359;51.450;7.346;2023-04-09T12:40:24;6.93;;;5.78;;
12587;SDS011;6359;51.450;7.346;2023-04-09T12:42:52;6.50;;;5.38;;
12587;SDS011;6359;51.450;7.346;2023-04-09T12:45:19;6.75;;;5.70;;
12587;SDS011;6359;51.450;7.346;2023-04-09T12:47:47;7.90;;;5.60;;
12587;SDS011;6359;51.450;7.346;2023-04-09T12:50:14;7.78;;;5.90;;
12587;SDS011;6359;51.450;7.346;2023-04-09T12:52:42;7.65;;;5.93;;
12587;SDS011;6359;51.450;7.346;2023-04-09T12:55:11;6.18;;;5.57;;
12587;SDS011;6359;51.450;7.346;2023-04-09T12:57:40;5.80;;;5.20;;
12587;SDS011;6359;51.450;7.346;2023-04-09T13:00:08;7.03;;;5.47;;
12587;SDS011;6359;51.450;7.346;2023-04-09T13:02:36;6.97;;;5.65;;
12587;SDS011;6359;51.450;7.346;2023-04-09T13:05:03;6.18;;;5.20;;
12587;SDS011;6359;51.450;7.346;2023-04-09T13:07:30;7.28;;;5.55;;
12587;SDS011;6359;51.450;7.346;2023-04-09T13:09:57;7.50;;;5.97;;
12587;SDS011;6359;51.450;7.346;2023-04-09T13:12:26;5.50;;;4.70;;
12587;SDS011;6359;51.450;7.346;2023-04-09T13:14:53;6.28;;;4.93;;
12587;SDS011;6359;51.450;7.346;2023-04-09T13:17:20;7.32;;;5.55;;
12587;SDS011;6359;51.450;7.346;2023-04-09T13:19:48;6.20;;;5.43;;
12587;SDS011;6359;51.450;7.346;2023-04-09T13:22:15;6.93;;;5.47;;
12587;SDS011;6359;51.450;7.346;2023-04-09T13:24:43;6.65;;;5.30;;
12587;SDS011;6359;51.450;7.346;2023-04-09T13:27:10;5.88;;;5.28;;
12587;SDS011;6359;51.450;7.346;2023-04-09T13:29:38;5.80;;;5.20;;
12587;SDS011;6359;51.450;7.346;2023-04-09T13:32:05;5.97;;;5.38;;
12587;SDS011;6359;51.450;7.346;2023-04-09T13:34:34;5.50;;;4.93;;
12587;SDS011;6359;51.450;7.346;2023-04-09T13:37:01;5.80;;;5.05;;
12587;SDS011;6359;51.450;7.346;2023-04-09T13:39:29;5.18;;;4.68;;
12587;SDS011;6359;51.450;7.346;2023-04-09T13:41:56;7.35;;;5.57;;
12587;SDS011;6359;51.450;7.346;2023-04-09T13:44:23;6.38;;;5.25;;
12587;SDS011;6359;51.450;7.346;2023-04-09T13:46:52;5.93;;;5.35;;
12587;SDS011;6359;51.450;7.346;2023-04-09T13:49:19;5.57;;;4.97;;
12587;SDS011;6359;51.450;7.346;2023-04-09T13:51:47;5.50;;;4.90;;
12587;SDS011;6359;51.450;7.346;2023-04-09T13:54:14;5.55;;;4.93;;
12587;SDS011;6359;51.450;7.346;2023-04-09T13:56:42;5.75;;;5.05;;
12587;SDS011;6359;51.450;7.346;2023-04-09T13:59:09;5.35;;;4.57;;
12587;SDS011;6359;51.450;7.346;2023-04-09T14:01:36;6.35;;;5.55;;
12587;SDS011;6359;51.450;7.346;2023-04-09T14:04:05;5.80;;;5.00;;
12587;SDS011;6359;51.450;7.346;2023-04-09T14:06:32;4.93;;;4.43;;
12587;SDS011;6359;51.450;7.346;2023-04-09T14:08:59;6.43;;;5.75;;
12587;SDS011;6359;51.450;7.346;2023-04-09T14:11:26;8.45;;;6.38;;
12587;SDS011;6359;51.450;7.346;2023-04-09T14:13:53;9.02;;;6.60;;
12587;SDS011;6359;51.450;7.346;2023-04-09T14:16:20;6.85;;;4.88;;
12587;SDS011;6359;51.450;7.346;2023-04-09T14:18:47;5.75;;;5.13;;
12587;SDS011;6359;51.450;7.346;2023-04-09T14:21:16;7.95;;;5.65;;
12587;SDS011;6359;51.450;7.346;2023-04-09T14:23:43;4.90;;;4.40;;
12587;SDS011;6359;51.450;7.346;2023-04-09T14:26:10;5.57;;;4.97;;
12587;SDS011;6359;51.450;7.346;2023-04-09T14:28:37;5.55;;;4.60;;
12587;SDS011;6359;51.450;7.346;2023-04-09T14:31:05;5.72;;;4.75;;
12587;SDS011;6359;51.450;7.346;2023-04-09T14:33:32;4.82;;;4.32;;
12587;SDS011;6359;51.450;7.346;2023-04-09T14:35:59;6.65;;;4.97;;
12587;SDS011;6359;51.450;7.346;2023-04-09T14:38:28;6.05;;;5.13;;
12587;SDS011;6359;51.450;7.346;2023-04-09T14:40:55;7.82;;;6.45;;
12587;SDS011;6359;51.450;7.346;2023-04-09T14:43:22;9.40;;;7.45;;
12587;SDS011;6359;51.450;7.346;2023-04-09T14:45:49;10.50;;;7.90;;
12587;SDS011;6359;51.450;7.346;2023-04-09T14:48:18;5.75;;;4.65;;
12587;SDS011;6359;51.450;7.346;2023-04-09T14:50:45;4.90;;;4.40;;